sensor_id;sensor_type;location;lat;lon;timestamp;temperature;humidity
13436;DHT22;6790;49.520;8.504;2024-03-08T00:00:19;3.60;99.90
13436;DHT22;6790;49.520;8.504;2024-03-08T00:02:47;3.70;99.90
13436;DHT22;6790;49.520;8.504;2024-03-08T00:05:15;3.60;99.90
13436;DHT22;6790;49.520;8.504;2024-03-08T00:07:43;3.50;99.90
13436;DHT22;6790;49.520;8.504;2024-03-08T00:10:10;3.40;99.90
13436;DHT22;6790;49.520;8.504;2024-03-08T00:12:40;3.40;99.90
13436;DHT22;6790;49.520;8.504;2024-03-08T00:15:10;3.40;99.90
13436;DHT22;6790;49.520;8.504;2024-03-08T00:17:39;3.30;99.90
13436;DHT22;6790;49.520;8.504;2024-03-08T00:20:06;3.30;99.90
13436;DHT22;6790;49.520;8.504;2024-03-08T00:22:34;3.30;99.90
13436;DHT22;6790;49.520;8.504;2024-03-08T00:25:01;3.20;99.90
13436;DHT22;6790;49.520;8.504;2024-03-08T00:27:28;3.30;99.90
13436;DHT22;6790;49.520;8.504;2024-03-08T00:29:57;3.40;99.90
13436;DHT22;6790;49.520;8.504;2024-03-08T00:32:23;3.40;99.90
13436;DHT22;6790;49.520;8.504;2024-03-08T00:34:50;3.30;99.90
13436;DHT22;6790;49.520;8.504;2024-03-08T00:37:22;3.40;99.90
13436;DHT22;6790;49.520;8.504;2024-03-08T00:39:49;3.50;99.90
13436;DHT22;6790;49.520;8.504;2024-03-08T00:42:16;3.50;99.90
13436;DHT22;6790;49.520;8.504;2024-03-08T00:44:42;3.50;99.90
13436;DHT22;6790;49.520;8.504;2024-03-08T00:47:08;3.50;99.90
13436;DHT22;6790;49.520;8.504;2024-03-08T00:49:34;3.60;99.90
13436;DHT22;6790;49.520;8.504;2024-03-08T00:52:00;3.60;99.90
13436;DHT22;6790;49.520;8.504;2024-03-08T00:54:26;3.70;99.90
13436;DHT22;6790;49.520;8.504;2024-03-08T00:56:51;3.80;99.90
13436;DHT22;6790;49.520;8.504;2024-03-08T00:59:17;3.60;99.90
13436;DHT22;6790;49.520;8.504;2024-03-08T01:01:43;3.60;99.90
13436;DHT22;6790;49.520;8.504;2024-03-08T01:04:09;3.60;99.90
13436;DHT22;6790;49.520;8.504;2024-03-08T01:06:36;3.50;99.90
13436;DHT22;6790;49.520;8.504;2024-03-08T01:09:02;3.80;99.90
13436;DHT22;6790;49.520;8.504;2024-03-08T01:11:28;3.70;99.90
13436;DHT22;6790;49.520;8.504;2024-03-08T01:13:54;3.80;99.90
13436;DHT22;6790;49.520;8.504;2024-03-08T01:16:19;3.60;99.90
13436;DHT22;6790;49.520;8.504;2024-03-08T01:18:46;3.80;99.90
13436;DHT22;6790;49.520;8.504;2024-03-08T01:21:12;3.80;99.90
13436;DHT22;6790;49.520;8.504;2024-03-08T01:23:38;3.90;99.90
13436;DHT22;6790;49.520;8.504;2024-03-08T01:26:04;4.00;99.90
13436;DHT22;6790;49.520;8.504;2024-03-08T01:28:30;4.00;99.90
13436;DHT22;6790;49.520;8.504;2024-03-08T01:30:56;4.10;99.90
13436;DHT22;6790;49.520;8.504;2024-03-08T01:33:23;3.90;99.90
13436;DHT22;6790;49.520;8.504;2024-03-08T01:35:53;4.00;99.90
13436;DHT22;6790;49.520;8.504;2024-03-08T01:38:20;4.10;99.90
13436;DHT22;6790;49.520;8.504;2024-03-08T01:40:49;4.10;99.90
13436;DHT22;6790;49.520;8.504;2024-03-08T01:43:35;4.00;99.90
13436;DHT22;6790;49.520;8.504;2024-03-08T01:46:02;4.00;99.90
13436;DHT22;6790;49.520;8.504;2024-03-08T01:48:28;4.00;99.90
13436;DHT22;6790;49.520;8.504;2024-03-08T01:50:55;4.00;99.90
13436;DHT22;6790;49.520;8.504;2024-03-08T01:53:22;4.00;99.90
13436;DHT22;6790;49.520;8.504;2024-03-08T01:55:48;3.90;99.90
13436;DHT22;6790;49.520;8.504;2024-03-08T01:58:15;3.80;99.90
13436;DHT22;6790;49.520;8.504;2024-03-08T02:00:44;3.60;99.90
13436;DHT22;6790;49.520;8.504;2024-03-08T02:03:10;3.50;99.90
13436;DHT22;6790;49.520;8.504;2024-03-08T02:05:37;3.40;99.90
13436;DHT22;6790;49.520;8.504;2024-03-08T02:08:05;3.40;99.90
13436;DHT22;6790;49.520;8.504;2024-03-08T02:10:33;3.30;99.90
13436;DHT22;6790;49.520;8.504;2024-03-08T02:13:02;3.40;99.90
13436;DHT22;6790;49.520;8.504;2024-03-08T02:15:53;3.30;99.90
13436;DHT22;6790;49.520;8.504;2024-03-08T02:18:27;3.10;99.90
13436;DHT22;6790;49.520;8.504;2024-03-08T02:20:59;3.00;99.90
13436;DHT22;6790;49.520;8.504;2024-03-08T02:23:26;3.00;99.90
13436;DHT22;6790;49.520;8.504;2024-03-08T02:25:52;3.20;99.90
13436;DHT22;6790;49.520;8.504;2024-03-08T02:28:18;3.20;99.90
13436;DHT22;6790;49.520;8.504;2024-03-08T02:30:51;3.10;99.90
13436;DHT22;6790;49.520;8.504;2024-03-08T02:33:21;3.00;99.90
13436;DHT22;6790;49.520;8.504;2024-03-08T02:35:48;2.80;99.90
13436;DHT22;6790;49.520;8.504;2024-03-08T02:38:15;2.80;99.90
13436;DHT22;6790;49.520;8.504;2024-03-08T02:40:43;2.80;99.90
13436;DHT22;6790;49.520;8.504;2024-03-08T02:43:13;2.70;99.90
13436;DHT22;6790;49.520;8.504;2024-03-08T02:45:40;2.70;99.90
13436;DHT22;6790;49.520;8.504;2024-03-08T02:48:07;2.80;99.90
13436;DHT22;6790;49.520;8.504;2024-03-08T02:50:34;2.90;99.90
13436;DHT22;6790;49.520;8.504;2024-03-08T02:53:03;2.80;99.90
13436;DHT22;6790;49.520;8.504;2024-03-08T02:55:29;2.60;99.90
13436;DHT22;6790;49.520;8.504;2024-03-08T02:57:56;2.50;99.90
13436;DHT22;6790;49.520;8.504;2024-03-08T03:00:22;2.40;99.90
13436;DHT22;6790;49.520;8.504;2024-03-08T03:02:51;2.40;99.90
13436;DHT22;6790;49.520;8.504;2024-03-08T03:05:28;2.40;99.90
13436;DHT22;6790;49.520;8.504;2024-03-08T03:07:55;2.30;99.90
13436;DHT22;6790;49.520;8.504;2024-03-08T03:10:21;2.30;99.90
13436;DHT22;6790;49.520;8.504;2024-03-08T03:12:50;2.20;99.90
13436;DHT22;6790;49.520;8.504;2024-03-08T03:15:16;2.20;99.90
13436;DHT22;6790;49.520;8.504;2024-03-08T03:17:49;2.20;99.90
13436;DHT22;6790;49.520;8.504;2024-03-08T03:20:18;2.10;99.90
13436;DHT22;6790;49.520;8.504;2024-03-08T03:22:58;1.90;99.90
13436;DHT22;6790;49.520;8.504;2024-03-08T03:25:26;2.00;99.90
13436;DHT22;6790;49.520;8.504;2024-03-08T03:27:58;1.90;99.90
13436;DHT22;6790;49.520;8.504;2024-03-08T03:30:24;1.80;99.90
13436;DHT22;6790;49.520;8.504;2024-03-08T03:32:53;1.70;99.90
13436;DHT22;6790;49.520;8.504;2024-03-08T03:35:20;1.60;99.90
13436;DHT22;6790;49.520;8.504;2024-03-08T03:37:47;1.60;99.90
13436;DHT22;6790;49.520;8.504;2024-03-08T03:40:34;2.00;99.90
13436;DHT22;6790;49.520;8.504;2024-03-08T03:43:02;2.20;99.90
13436;DHT22;6790;49.520;8.504;2024-03-08T03:45:31;2.40;99.90
13436;DHT22;6790;49.520;8.504;2024-03-08T03:48:01;2.40;99.90
13436;DHT22;6790;49.520;8.504;2024-03-08T03:50:27;2.30;99.90
13436;DHT22;6790;49.520;8.504;2024-03-08T03:52:53;2.00;99.90
13436;DHT22;6790;49.520;8.504;2024-03-08T03:55:19;1.80;99.90
13436;DHT22;6790;49.520;8.504;2024-03-08T03:57:45;1.70;99.90
13436;DHT22;6790;49.520;8.504;2024-03-08T04:00:11;1.60;99.90
13436;DHT22;6790;49.520;8.504;2024-03-08T04:02:38;1.60;99.90
13436;DHT22;6790;49.520;8.504;2024-03-08T04:05:06;1.50;99.90
13436;DHT22;6790;49.520;8.504;2024-03-08T04:07:32;1.50;99.90
13436;DHT22;6790;49.520;8.504;2024-03-08T04:09:58;1.50;99.90
13436;DHT22;6790;49.520;8.504;2024-03-08T04:12:23;1.50;99.90
13436;DHT22;6790;49.520;8.504;2024-03-08T04:14:49;1.70;99.90
13436;DHT22;6790;49.520;8.504;2024-03-08T04:17:15;2.00;99.90
13436;DHT22;6790;49.520;8.504;2024-03-08T04:19:41;2.10;99.90
13436;DHT22;6790;49.520;8.504;2024-03-08T04:22:07;1.90;99.90
13436;DHT22;6790;49.520;8.504;2024-03-08T04:24:33;1.70;99.90
13436;DHT22;6790;49.520;8.504;2024-03-08T04:26:59;1.60;99.90
13436;DHT22;6790;49.520;8.504;2024-03-08T04:29:25;1.50;99.90
13436;DHT22;6790;49.520;8.504;2024-03-08T04:31:51;1.40;99.90
13436;DHT22;6790;49.520;8.504;2024-03-08T04:34:20;1.30;99.90
13436;DHT22;6790;49.520;8.504;2024-03-08T04:36:47;1.30;99.90
13436;DHT22;6790;49.520;8.504;2024-03-08T04:39:13;1.20;99.90
13436;DHT22;6790;49.520;8.504;2024-03-08T04:41:40;1.30;99.90
13436;DHT22;6790;49.520;8.504;2024-03-08T04:44:05;1.20;99.90
13436;DHT22;6790;49.520;8.504;2024-03-08T04:46:31;1.20;99.90
13436;DHT22;6790;49.520;8.504;2024-03-08T04:48:57;1.10;99.90
13436;DHT22;6790;49.520;8.504;2024-03-08T04:51:25;1.00;99.90
13436;DHT22;6790;49.520;8.504;2024-03-08T04:53:50;0.90;99.90
13436;DHT22;6790;49.520;8.504;2024-03-08T04:56:16;0.90;99.90
13436;DHT22;6790;49.520;8.504;2024-03-08T04:58:44;0.90;99.90
13436;DHT22;6790;49.520;8.504;2024-03-08T05:01:12;0.80;99.90
13436;DHT22;6790;49.520;8.504;2024-03-08T05:03:38;0.80;99.90
13436;DHT22;6790;49.520;8.504;2024-03-08T05:06:04;0.70;99.90
13436;DHT22;6790;49.520;8.504;2024-03-08T05:08:30;0.70;99.90
13436;DHT22;6790;49.520;8.504;2024-03-08T05:10:56;0.60;99.90
13436;DHT22;6790;49.520;8.504;2024-03-08T05:13:22;0.60;99.90
13436;DHT22;6790;49.520;8.504;2024-03-08T05:15:49;1.10;99.90
13436;DHT22;6790;49.520;8.504;2024-03-08T05:18:17;1.10;99.90
13436;DHT22;6790;49.520;8.504;2024-03-08T05:20:43;0.90;99.90
13436;DHT22;6790;49.520;8.504;2024-03-08T05:23:09;0.90;99.90
13436;DHT22;6790;49.520;8.504;2024-03-08T05:25:34;1.10;99.90
13436;DHT22;6790;49.520;8.504;2024-03-08T05:28:01;1.90;99.90
13436;DHT22;6790;49.520;8.504;2024-03-08T05:30:27;2.30;99.90
13436;DHT22;6790;49.520;8.504;2024-03-08T05:32:52;2.70;99.90
13436;DHT22;6790;49.520;8.504;2024-03-08T05:35:18;2.70;99.90
13436;DHT22;6790;49.520;8.504;2024-03-08T05:37:44;2.70;99.90
13436;DHT22;6790;49.520;8.504;2024-03-08T05:40:10;2.50;99.90
13436;DHT22;6790;49.520;8.504;2024-03-08T05:42:36;2.60;99.90
13436;DHT22;6790;49.520;8.504;2024-03-08T05:45:05;2.60;99.90
13436;DHT22;6790;49.520;8.504;2024-03-08T05:47:35;2.70;99.90
13436;DHT22;6790;49.520;8.504;2024-03-08T05:50:01;2.50;99.90
13436;DHT22;6790;49.520;8.504;2024-03-08T05:52:27;2.50;99.90
13436;DHT22;6790;49.520;8.504;2024-03-08T05:54:53;2.40;99.90
13436;DHT22;6790;49.520;8.504;2024-03-08T05:57:18;2.50;99.90
13436;DHT22;6790;49.520;8.504;2024-03-08T05:59:44;2.50;99.90
13436;DHT22;6790;49.520;8.504;2024-03-08T06:02:10;2.40;99.90
13436;DHT22;6790;49.520;8.504;2024-03-08T06:04:36;2.30;99.90
13436;DHT22;6790;49.520;8.504;2024-03-08T06:07:03;2.30;99.90
13436;DHT22;6790;49.520;8.504;2024-03-08T06:09:29;2.10;99.90
13436;DHT22;6790;49.520;8.504;2024-03-08T06:11:55;2.10;99.90
13436;DHT22;6790;49.520;8.504;2024-03-08T06:14:22;2.20;99.90
13436;DHT22;6790;49.520;8.504;2024-03-08T06:16:48;2.30;99.90
13436;DHT22;6790;49.520;8.504;2024-03-08T06:19:16;2.20;99.90
13436;DHT22;6790;49.520;8.504;2024-03-08T06:21:41;2.30;99.90
13436;DHT22;6790;49.520;8.504;2024-03-08T06:24:07;2.30;99.90
13436;DHT22;6790;49.520;8.504;2024-03-08T06:26:33;2.60;99.90
13436;DHT22;6790;49.520;8.504;2024-03-08T06:28:59;2.50;99.90
13436;DHT22;6790;49.520;8.504;2024-03-08T06:31:25;2.50;99.90
13436;DHT22;6790;49.520;8.504;2024-03-08T06:33:51;2.60;99.90
13436;DHT22;6790;49.520;8.504;2024-03-08T06:36:17;2.80;99.90
13436;DHT22;6790;49.520;8.504;2024-03-08T06:38:47;2.80;99.90
13436;DHT22;6790;49.520;8.504;2024-03-08T06:41:14;2.90;99.90
13436;DHT22;6790;49.520;8.504;2024-03-08T06:43:43;2.80;99.90
13436;DHT22;6790;49.520;8.504;2024-03-08T06:46:09;2.70;99.90
13436;DHT22;6790;49.520;8.504;2024-03-08T06:48:38;3.00;99.90
13436;DHT22;6790;49.520;8.504;2024-03-08T06:51:06;3.30;99.90
13436;DHT22;6790;49.520;8.504;2024-03-08T06:53:32;3.40;99.90
13436;DHT22;6790;49.520;8.504;2024-03-08T06:56:00;3.60;99.90
13436;DHT22;6790;49.520;8.504;2024-03-08T06:58:27;3.60;99.90
13436;DHT22;6790;49.520;8.504;2024-03-08T07:00:53;3.50;99.90
13436;DHT22;6790;49.520;8.504;2024-03-08T07:03:19;3.60;99.90
13436;DHT22;6790;49.520;8.504;2024-03-08T07:05:47;3.60;99.90
13436;DHT22;6790;49.520;8.504;2024-03-08T07:08:13;3.60;99.90
13436;DHT22;6790;49.520;8.504;2024-03-08T07:10:39;3.70;99.90
13436;DHT22;6790;49.520;8.504;2024-03-08T07:13:07;3.70;99.90
13436;DHT22;6790;49.520;8.504;2024-03-08T07:15:33;3.90;99.90
13436;DHT22;6790;49.520;8.504;2024-03-08T07:18:00;4.00;99.90
13436;DHT22;6790;49.520;8.504;2024-03-08T07:20:26;4.00;99.90
13436;DHT22;6790;49.520;8.504;2024-03-08T07:22:53;4.10;99.90
13436;DHT22;6790;49.520;8.504;2024-03-08T07:25:19;4.20;99.90
13436;DHT22;6790;49.520;8.504;2024-03-08T07:27:54;4.20;99.90
13436;DHT22;6790;49.520;8.504;2024-03-08T07:30:24;4.20;99.90
13436;DHT22;6790;49.520;8.504;2024-03-08T07:33:09;4.30;99.90
13436;DHT22;6790;49.520;8.504;2024-03-08T07:35:38;4.30;99.90
13436;DHT22;6790;49.520;8.504;2024-03-08T07:38:08;4.40;99.90
13436;DHT22;6790;49.520;8.504;2024-03-08T07:40:38;4.50;99.90
13436;DHT22;6790;49.520;8.504;2024-03-08T07:43:07;4.50;99.90
13436;DHT22;6790;49.520;8.504;2024-03-08T07:45:33;4.60;99.90
13436;DHT22;6790;49.520;8.504;2024-03-08T07:47:58;4.60;99.90
13436;DHT22;6790;49.520;8.504;2024-03-08T07:50:24;4.70;99.90
13436;DHT22;6790;49.520;8.504;2024-03-08T07:52:50;4.90;99.90
13436;DHT22;6790;49.520;8.504;2024-03-08T07:55:16;5.00;99.90
13436;DHT22;6790;49.520;8.504;2024-03-08T07:57:42;5.10;99.90
13436;DHT22;6790;49.520;8.504;2024-03-08T08:00:08;5.30;99.90
13436;DHT22;6790;49.520;8.504;2024-03-08T08:02:36;5.30;99.90
13436;DHT22;6790;49.520;8.504;2024-03-08T08:05:02;5.30;99.90
13436;DHT22;6790;49.520;8.504;2024-03-08T08:07:29;5.20;99.90
13436;DHT22;6790;49.520;8.504;2024-03-08T08:09:54;5.40;99.90
13436;DHT22;6790;49.520;8.504;2024-03-08T08:12:20;5.60;99.90
13436;DHT22;6790;49.520;8.504;2024-03-08T08:14:46;5.70;99.90
13436;DHT22;6790;49.520;8.504;2024-03-08T08:17:12;5.60;99.90
13436;DHT22;6790;49.520;8.504;2024-03-08T08:19:38;5.60;99.90
13436;DHT22;6790;49.520;8.504;2024-03-08T08:22:05;5.80;99.90
13436;DHT22;6790;49.520;8.504;2024-03-08T08:24:34;5.90;99.90
13436;DHT22;6790;49.520;8.504;2024-03-08T08:26:59;6.10;99.90
13436;DHT22;6790;49.520;8.504;2024-03-08T08:29:26;6.00;99.90
13436;DHT22;6790;49.520;8.504;2024-03-08T08:31:51;6.00;99.90
13436;DHT22;6790;49.520;8.504;2024-03-08T08:34:18;6.10;99.90
13436;DHT22;6790;49.520;8.504;2024-03-08T08:36:44;6.20;99.90
13436;DHT22;6790;49.520;8.504;2024-03-08T08:39:10;6.40;99.90
13436;DHT22;6790;49.520;8.504;2024-03-08T08:41:40;6.80;99.90
13436;DHT22;6790;49.520;8.504;2024-03-08T08:44:07;6.90;99.90
13436;DHT22;6790;49.520;8.504;2024-03-08T08:46:36;6.80;99.90
13436;DHT22;6790;49.520;8.504;2024-03-08T08:49:03;6.80;99.90
13436;DHT22;6790;49.520;8.504;2024-03-08T08:51:34;6.80;99.90
13436;DHT22;6790;49.520;8.504;2024-03-08T08:54:00;7.20;99.90
13436;DHT22;6790;49.520;8.504;2024-03-08T08:56:26;7.60;99.90
13436;DHT22;6790;49.520;8.504;2024-03-08T08:58:52;7.50;99.90
13436;DHT22;6790;49.520;8.504;2024-03-08T09:01:20;7.80;99.90
13436;DHT22;6790;49.520;8.504;2024-03-08T09:03:46;7.80;99.90
13436;DHT22;6790;49.520;8.504;2024-03-08T09:06:12;7.40;99.90
13436;DHT22;6790;49.520;8.504;2024-03-08T09:08:41;7.30;99.90
13436;DHT22;6790;49.520;8.504;2024-03-08T09:11:07;7.10;99.90
13436;DHT22;6790;49.520;8.504;2024-03-08T09:13:33;7.60;99.90
13436;DHT22;6790;49.520;8.504;2024-03-08T09:15:59;8.00;99.90
13436;DHT22;6790;49.520;8.504;2024-03-08T09:18:25;8.60;99.90
13436;DHT22;6790;49.520;8.504;2024-03-08T09:20:51;9.30;99.90
13436;DHT22;6790;49.520;8.504;2024-03-08T09:23:22;9.60;99.90
13436;DHT22;6790;49.520;8.504;2024-03-08T09:25:47;9.80;99.90
13436;DHT22;6790;49.520;8.504;2024-03-08T09:28:14;9.10;99.90
13436;DHT22;6790;49.520;8.504;2024-03-08T09:30:39;8.60;99.90
13436;DHT22;6790;49.520;8.504;2024-03-08T09:33:05;7.70;99.90
13436;DHT22;6790;49.520;8.504;2024-03-08T09:35:32;7.80;99.90
13436;DHT22;6790;49.520;8.504;2024-03-08T09:37:58;7.90;99.90
13436;DHT22;6790;49.520;8.504;2024-03-08T09:40:23;7.90;99.90
13436;DHT22;6790;49.520;8.504;2024-03-08T09:42:51;7.80;99.90
13436;DHT22;6790;49.520;8.504;2024-03-08T09:45:20;7.70;99.90
13436;DHT22;6790;49.520;8.504;2024-03-08T09:47:50;7.80;99.90
13436;DHT22;6790;49.520;8.504;2024-03-08T09:50:16;7.80;99.90
13436;DHT22;6790;49.520;8.504;2024-03-08T09:52:44;8.00;99.90
13436;DHT22;6790;49.520;8.504;2024-03-08T09:55:12;8.20;99.90
13436;DHT22;6790;49.520;8.504;2024-03-08T09:57:38;8.10;99.90
13436;DHT22;6790;49.520;8.504;2024-03-08T10:00:05;8.30;99.90
13436;DHT22;6790;49.520;8.504;2024-03-08T10:02:45;8.40;99.90
13436;DHT22;6790;49.520;8.504;2024-03-08T10:05:12;8.10;99.90
13436;DHT22;6790;49.520;8.504;2024-03-08T10:07:39;7.90;99.90
13436;DHT22;6790;49.520;8.504;2024-03-08T10:10:05;8.10;99.90
13436;DHT22;6790;49.520;8.504;2024-03-08T10:12:36;8.20;99.90
13436;DHT22;6790;49.520;8.504;2024-03-08T10:15:02;8.20;99.90
13436;DHT22;6790;49.520;8.504;2024-03-08T10:17:27;8.00;99.90
13436;DHT22;6790;49.520;8.504;2024-03-08T10:19:57;7.90;99.90
13436;DHT22;6790;49.520;8.504;2024-03-08T10:22:25;7.80;99.90
13436;DHT22;6790;49.520;8.504;2024-03-08T10:24:51;7.20;99.90
13436;DHT22;6790;49.520;8.504;2024-03-08T10:27:17;7.50;99.90
13436;DHT22;6790;49.520;8.504;2024-03-08T10:29:47;8.20;99.90
13436;DHT22;6790;49.520;8.504;2024-03-08T10:32:13;8.30;99.90
13436;DHT22;6790;49.520;8.504;2024-03-08T10:34:39;8.10;99.90
13436;DHT22;6790;49.520;8.504;2024-03-08T10:37:07;7.90;99.90
13436;DHT22;6790;49.520;8.504;2024-03-08T10:39:47;7.90;99.90
13436;DHT22;6790;49.520;8.504;2024-03-08T10:42:23;8.00;99.90
13436;DHT22;6790;49.520;8.504;2024-03-08T10:45:06;8.60;99.90
13436;DHT22;6790;49.520;8.504;2024-03-08T10:47:41;8.80;99.90
13436;DHT22;6790;49.520;8.504;2024-03-08T10:50:20;8.50;99.90
13436;DHT22;6790;49.520;8.504;2024-03-08T10:52:49;8.50;99.90
13436;DHT22;6790;49.520;8.504;2024-03-08T10:55:17;8.40;99.90
13436;DHT22;6790;49.520;8.504;2024-03-08T10:57:45;8.20;99.90
13436;DHT22;6790;49.520;8.504;2024-03-08T11:00:13;8.00;99.90
13436;DHT22;6790;49.520;8.504;2024-03-08T11:02:43;7.70;99.90
13436;DHT22;6790;49.520;8.504;2024-03-08T11:05:37;7.80;99.90
13436;DHT22;6790;49.520;8.504;2024-03-08T11:08:25;8.60;99.90
13436;DHT22;6790;49.520;8.504;2024-03-08T11:10:52;8.30;99.90
13436;DHT22;6790;49.520;8.504;2024-03-08T11:19:23;8.30;99.90
13436;DHT22;6790;49.520;8.504;2024-03-08T11:22:01;8.50;99.90
13436;DHT22;6790;49.520;8.504;2024-03-08T11:24:36;8.50;99.90
13436;DHT22;6790;49.520;8.504;2024-03-08T11:27:04;8.40;99.90
13436;DHT22;6790;49.520;8.504;2024-03-08T11:32:12;8.40;99.90
13436;DHT22;6790;49.520;8.504;2024-03-08T11:34:46;8.40;99.90
13436;DHT22;6790;49.520;8.504;2024-03-08T11:37:19;8.60;99.90
13436;DHT22;6790;49.520;8.504;2024-03-08T11:39:54;8.60;99.90
13436;DHT22;6790;49.520;8.504;2024-03-08T11:42:28;8.70;99.90
13436;DHT22;6790;49.520;8.504;2024-03-08T11:44:54;8.90;99.90
13436;DHT22;6790;49.520;8.504;2024-03-08T11:47:21;9.30;99.90
13436;DHT22;6790;49.520;8.504;2024-03-08T11:49:47;9.20;99.90
13436;DHT22;6790;49.520;8.504;2024-03-08T11:52:15;9.00;99.90
13436;DHT22;6790;49.520;8.504;2024-03-08T11:55:02;9.30;99.90
13436;DHT22;6790;49.520;8.504;2024-03-08T11:57:30;8.80;99.90
13436;DHT22;6790;49.520;8.504;2024-03-08T11:59:57;9.30;99.90
13436;DHT22;6790;49.520;8.504;2024-03-08T12:02:24;9.50;99.90
13436;DHT22;6790;49.520;8.504;2024-03-08T12:04:57;9.70;99.90
13436;DHT22;6790;49.520;8.504;2024-03-08T12:07:25;9.90;99.90
13436;DHT22;6790;49.520;8.504;2024-03-08T12:10:21;10.20;99.90
13436;DHT22;6790;49.520;8.504;2024-03-08T12:12:54;10.30;99.90
13436;DHT22;6790;49.520;8.504;2024-03-08T12:15:23;10.00;99.90
13436;DHT22;6790;49.520;8.504;2024-03-08T12:17:51;10.00;99.90
13436;DHT22;6790;49.520;8.504;2024-03-08T12:20:28;9.90;99.90
13436;DHT22;6790;49.520;8.504;2024-03-08T12:22:57;10.00;99.90
13436;DHT22;6790;49.520;8.504;2024-03-08T12:25:29;10.00;99.90
13436;DHT22;6790;49.520;8.504;2024-03-08T12:28:06;9.90;99.90
13436;DHT22;6790;49.520;8.504;2024-03-08T12:30:44;10.10;99.90
13436;DHT22;6790;49.520;8.504;2024-03-08T12:33:14;10.10;99.90
13436;DHT22;6790;49.520;8.504;2024-03-08T12:35:40;10.10;99.90
13436;DHT22;6790;49.520;8.504;2024-03-08T12:38:06;10.30;99.90
13436;DHT22;6790;49.520;8.504;2024-03-08T12:40:34;10.20;99.90
13436;DHT22;6790;49.520;8.504;2024-03-08T12:43:00;10.00;99.90
13436;DHT22;6790;49.520;8.504;2024-03-08T12:45:27;10.20;99.90
13436;DHT22;6790;49.520;8.504;2024-03-08T12:47:53;10.10;99.90
13436;DHT22;6790;49.520;8.504;2024-03-08T12:50:23;10.40;99.90
13436;DHT22;6790;49.520;8.504;2024-03-08T12:52:52;10.70;99.90
13436;DHT22;6790;49.520;8.504;2024-03-08T12:55:18;10.60;99.90
13436;DHT22;6790;49.520;8.504;2024-03-08T12:57:44;10.70;99.90
13436;DHT22;6790;49.520;8.504;2024-03-08T13:00:11;10.60;99.90
13436;DHT22;6790;49.520;8.504;2024-03-08T13:02:48;11.00;99.90
13436;DHT22;6790;49.520;8.504;2024-03-08T13:05:16;11.10;99.90
13436;DHT22;6790;49.520;8.504;2024-03-08T13:07:42;10.80;99.90
13436;DHT22;6790;49.520;8.504;2024-03-08T13:10:15;10.70;99.90
13436;DHT22;6790;49.520;8.504;2024-03-08T13:12:42;10.70;99.90
13436;DHT22;6790;49.520;8.504;2024-03-08T13:15:08;10.70;99.90
13436;DHT22;6790;49.520;8.504;2024-03-08T13:17:37;10.90;99.90
13436;DHT22;6790;49.520;8.504;2024-03-08T13:20:08;10.90;99.90
13436;DHT22;6790;49.520;8.504;2024-03-08T13:22:41;11.00;99.90
13436;DHT22;6790;49.520;8.504;2024-03-08T13:25:07;11.10;99.90
13436;DHT22;6790;49.520;8.504;2024-03-08T13:27:39;11.40;99.90
13436;DHT22;6790;49.520;8.504;2024-03-08T13:30:07;11.70;99.90
13436;DHT22;6790;49.520;8.504;2024-03-08T13:32:33;11.40;98.40
13436;DHT22;6790;49.520;8.504;2024-03-08T13:34:59;11.30;99.30
13436;DHT22;6790;49.520;8.504;2024-03-08T13:37:25;11.40;99.70
13436;DHT22;6790;49.520;8.504;2024-03-08T13:39:50;11.60;98.50
13436;DHT22;6790;49.520;8.504;2024-03-08T13:42:16;11.40;99.80
13436;DHT22;6790;49.520;8.504;2024-03-08T13:44:49;11.40;99.90
13436;DHT22;6790;49.520;8.504;2024-03-08T13:47:16;11.60;99.90
13436;DHT22;6790;49.520;8.504;2024-03-08T13:49:42;11.80;99.70
13436;DHT22;6790;49.520;8.504;2024-03-08T13:52:09;11.80;99.40
13436;DHT22;6790;49.520;8.504;2024-03-08T13:54:36;11.90;99.10
13436;DHT22;6790;49.520;8.504;2024-03-08T13:57:02;11.90;97.10
13436;DHT22;6790;49.520;8.504;2024-03-08T13:59:33;11.90;96.90
13436;DHT22;6790;49.520;8.504;2024-03-08T14:02:01;11.80;96.30
13436;DHT22;6790;49.520;8.504;2024-03-08T14:04:28;11.80;99.40
13436;DHT22;6790;49.520;8.504;2024-03-08T14:06:54;11.70;95.50
13436;DHT22;6790;49.520;8.504;2024-03-08T14:09:23;12.50;95.00
13436;DHT22;6790;49.520;8.504;2024-03-08T14:11:51;12.10;96.20
13436;DHT22;6790;49.520;8.504;2024-03-08T14:14:20;12.90;95.00
13436;DHT22;6790;49.520;8.504;2024-03-08T14:16:47;13.30;91.90
13436;DHT22;6790;49.520;8.504;2024-03-08T14:19:13;13.30;91.10
13436;DHT22;6790;49.520;8.504;2024-03-08T14:21:40;13.70;92.00
13436;DHT22;6790;49.520;8.504;2024-03-08T14:24:07;12.90;88.70
13436;DHT22;6790;49.520;8.504;2024-03-08T14:26:33;12.20;92.30
13436;DHT22;6790;49.520;8.504;2024-03-08T14:28:59;11.90;94.10
13436;DHT22;6790;49.520;8.504;2024-03-08T14:31:25;11.80;96.10
13436;DHT22;6790;49.520;8.504;2024-03-08T14:33:51;11.80;93.90
13436;DHT22;6790;49.520;8.504;2024-03-08T14:36:18;13.10;94.20
13436;DHT22;6790;49.520;8.504;2024-03-08T14:38:48;13.80;91.90
13436;DHT22;6790;49.520;8.504;2024-03-08T14:41:14;13.80;90.00
13436;DHT22;6790;49.520;8.504;2024-03-08T14:43:42;14.10;84.40
13436;DHT22;6790;49.520;8.504;2024-03-08T14:46:13;13.00;90.10
13436;DHT22;6790;49.520;8.504;2024-03-08T14:48:52;12.90;90.70
13436;DHT22;6790;49.520;8.504;2024-03-08T14:51:19;12.10;92.70
13436;DHT22;6790;49.520;8.504;2024-03-08T14:53:52;11.90;92.20
13436;DHT22;6790;49.520;8.504;2024-03-08T14:56:18;11.90;92.90
13436;DHT22;6790;49.520;8.504;2024-03-08T14:58:44;11.90;92.30
13436;DHT22;6790;49.520;8.504;2024-03-08T15:01:12;11.70;92.00
13436;DHT22;6790;49.520;8.504;2024-03-08T15:03:41;11.70;95.90
13436;DHT22;6790;49.520;8.504;2024-03-08T15:06:08;11.70;94.40
13436;DHT22;6790;49.520;8.504;2024-03-08T15:08:38;11.80;93.50
13436;DHT22;6790;49.520;8.504;2024-03-08T15:11:05;11.90;95.60
13436;DHT22;6790;49.520;8.504;2024-03-08T15:13:32;11.80;95.50
13436;DHT22;6790;49.520;8.504;2024-03-08T15:16:06;11.60;96.00
13436;DHT22;6790;49.520;8.504;2024-03-08T15:18:34;11.50;96.20
13436;DHT22;6790;49.520;8.504;2024-03-08T15:21:02;11.50;94.80
13436;DHT22;6790;49.520;8.504;2024-03-08T15:23:37;11.60;95.90
13436;DHT22;6790;49.520;8.504;2024-03-08T15:26:09;11.60;94.90
13436;DHT22;6790;49.520;8.504;2024-03-08T15:28:37;11.60;94.70
13436;DHT22;6790;49.520;8.504;2024-03-08T15:31:04;11.50;95.40
13436;DHT22;6790;49.520;8.504;2024-03-08T15:33:35;11.40;97.30
13436;DHT22;6790;49.520;8.504;2024-03-08T15:36:08;11.50;96.50
13436;DHT22;6790;49.520;8.504;2024-03-08T15:38:35;11.40;96.10
13436;DHT22;6790;49.520;8.504;2024-03-08T15:41:02;11.40;95.70
13436;DHT22;6790;49.520;8.504;2024-03-08T15:43:35;11.50;95.80
13436;DHT22;6790;49.520;8.504;2024-03-08T15:46:05;11.60;96.30
13436;DHT22;6790;49.520;8.504;2024-03-08T15:48:32;11.50;96.90
13436;DHT22;6790;49.520;8.504;2024-03-08T15:51:01;11.40;96.40
13436;DHT22;6790;49.520;8.504;2024-03-08T15:53:37;11.50;97.50
13436;DHT22;6790;49.520;8.504;2024-03-08T15:56:04;11.40;96.00
13436;DHT22;6790;49.520;8.504;2024-03-08T15:58:36;11.40;95.00
13436;DHT22;6790;49.520;8.504;2024-03-08T16:01:02;11.30;97.20
13436;DHT22;6790;49.520;8.504;2024-03-08T16:03:31;11.30;97.40
13436;DHT22;6790;49.520;8.504;2024-03-08T16:05:58;11.30;95.50
13436;DHT22;6790;49.520;8.504;2024-03-08T16:08:25;11.20;95.30
13436;DHT22;6790;49.520;8.504;2024-03-08T16:10:52;11.20;94.90